sensor_id;sensor_type;location;lat;lon;timestamp;P1;durP1;ratioP1;P2;durP2;ratioP2
62543;SDS011;48597;49.030;1.822;2022-11-14T00:00:29;7.15;;;6.45;;
62543;SDS011;48597;49.030;1.822;2022-11-14T00:02:58;8.20;;;6.90;;
62543;SDS011;48597;49.030;1.822;2022-11-14T00:05:24;7.68;;;6.65;;
62543;SDS011;48597;49.030;1.822;2022-11-14T00:07:49;8.55;;;6.57;;
62543;SDS011;48597;49.030;1.822;2022-11-14T00:10:15;7.72;;;6.68;;
62543;SDS011;48597;49.030;1.822;2022-11-14T00:12:41;7.50;;;6.28;;
62543;SDS011;48597;49.030;1.822;2022-11-14T00:15:07;7.68;;;6.40;;
62543;SDS011;48597;49.030;1.822;2022-11-14T00:17:33;6.50;;;5.75;;
62543;SDS011;48597;49.030;1.822;2022-11-14T00:19:58;7.75;;;6.03;;
62543;SDS011;48597;49.030;1.822;2022-11-14T00:22:23;6.82;;;6.05;;
62543;SDS011;48597;49.030;1.822;2022-11-14T00:24:49;6.78;;;5.97;;
62543;SDS011;48597;49.030;1.822;2022-11-14T00:27:14;6.70;;;5.93;;
62543;SDS011;48597;49.030;1.822;2022-11-14T00:29:39;6.60;;;5.90;;
62543;SDS011;48597;49.030;1.822;2022-11-14T00:32:05;7.03;;;5.88;;
62543;SDS011;48597;49.030;1.822;2022-11-14T00:34:31;6.90;;;5.93;;
62543;SDS011;48597;49.030;1.822;2022-11-14T00:36:57;6.75;;;5.95;;
62543;SDS011;48597;49.030;1.822;2022-11-14T00:39:22;6.25;;;5.28;;
62543;SDS011;48597;49.030;1.822;2022-11-14T00:41:48;6.32;;;5.72;;
62543;SDS011;48597;49.030;1.822;2022-11-14T00:44:13;7.68;;;5.75;;
62543;SDS011;48597;49.030;1.822;2022-11-14T00:46:38;7.03;;;5.70;;
62543;SDS011;48597;49.030;1.822;2022-11-14T00:49:04;5.97;;;5.32;;
62543;SDS011;48597;49.030;1.822;2022-11-14T00:51:29;6.10;;;5.50;;
62543;SDS011;48597;49.030;1.822;2022-11-14T00:53:54;7.15;;;5.25;;
62543;SDS011;48597;49.030;1.822;2022-11-14T00:56:20;6.35;;;5.43;;
62543;SDS011;48597;49.030;1.822;2022-11-14T00:58:45;6.13;;;5.32;;
62543;SDS011;48597;49.030;1.822;2022-11-14T01:01:10;5.97;;;5.28;;
62543;SDS011;48597;49.030;1.822;2022-11-14T01:03:36;5.75;;;4.88;;
62543;SDS011;48597;49.030;1.822;2022-11-14T01:06:05;5.72;;;5.13;;
62543;SDS011;48597;49.030;1.822;2022-11-14T01:08:33;6.40;;;5.32;;
62543;SDS011;48597;49.030;1.822;2022-11-14T01:10:58;5.72;;;5.13;;
62543;SDS011;48597;49.030;1.822;2022-11-14T01:13:24;6.18;;;5.47;;
62543;SDS011;48597;49.030;1.822;2022-11-14T01:15:51;5.53;;;5.00;;
62543;SDS011;48597;49.030;1.822;2022-11-14T01:18:17;5.53;;;4.93;;
62543;SDS011;48597;49.030;1.822;2022-11-14T01:20:44;5.47;;;4.97;;
62543;SDS011;48597;49.030;1.822;2022-11-14T01:23:12;5.47;;;4.85;;
62543;SDS011;48597;49.030;1.822;2022-11-14T01:25:40;5.38;;;4.88;;
62543;SDS011;48597;49.030;1.822;2022-11-14T01:28:06;5.40;;;4.88;;
62543;SDS011;48597;49.030;1.822;2022-11-14T01:30:36;4.97;;;4.47;;
62543;SDS011;48597;49.030;1.822;2022-11-14T01:33:02;5.00;;;4.50;;
62543;SDS011;48597;49.030;1.822;2022-11-14T01:35:29;5.40;;;4.90;;
62543;SDS011;48597;49.030;1.822;2022-11-14T01:37:55;5.15;;;4.40;;
62543;SDS011;48597;49.030;1.822;2022-11-14T01:40:21;5.10;;;4.53;;
62543;SDS011;48597;49.030;1.822;2022-11-14T01:53:32;4.63;;;4.22;;
62543;SDS011;48597;49.030;1.822;2022-11-14T01:55:59;4.13;;;3.72;;
62543;SDS011;48597;49.030;1.822;2022-11-14T01:58:28;4.68;;;4.18;;
62543;SDS011;48597;49.030;1.822;2022-11-14T02:00:55;5.30;;;4.25;;
62543;SDS011;48597;49.030;1.822;2022-11-14T02:03:21;4.50;;;4.10;;
62543;SDS011;48597;49.030;1.822;2022-11-14T02:05:46;4.57;;;4.15;;
62543;SDS011;48597;49.030;1.822;2022-11-14T02:08:13;4.68;;;4.28;;
62543;SDS011;48597;49.030;1.822;2022-11-14T02:10:40;4.38;;;3.97;;
62543;SDS011;48597;49.030;1.822;2022-11-14T02:13:06;4.93;;;4.43;;
62543;SDS011;48597;49.030;1.822;2022-11-14T02:15:31;4.28;;;3.83;;
62543;SDS011;48597;49.030;1.822;2022-11-14T02:17:57;4.28;;;3.88;;
62543;SDS011;48597;49.030;1.822;2022-11-14T02:22:56;4.65;;;4.15;;
62543;SDS011;48597;49.030;1.822;2022-11-14T02:25:22;4.70;;;4.20;;
62543;SDS011;48597;49.030;1.822;2022-11-14T02:27:47;4.07;;;3.60;;
62543;SDS011;48597;49.030;1.822;2022-11-14T02:30:16;4.45;;;4.05;;
62543;SDS011;48597;49.030;1.822;2022-11-14T02:32:44;4.90;;;4.30;;
62543;SDS011;48597;49.030;1.822;2022-11-14T02:35:09;4.05;;;3.67;;
62543;SDS011;48597;49.030;1.822;2022-11-14T02:37:35;4.40;;;4.00;;
62543;SDS011;48597;49.030;1.822;2022-11-14T02:40:01;4.63;;;4.22;;
62543;SDS011;48597;49.030;1.822;2022-11-14T02:42:27;4.50;;;4.10;;
62543;SDS011;48597;49.030;1.822;2022-11-14T02:44:52;4.10;;;3.70;;
62543;SDS011;48597;49.030;1.822;2022-11-14T02:47:18;4.40;;;4.00;;
62543;SDS011;48597;49.030;1.822;2022-11-14T02:49:43;4.38;;;3.97;;
62543;SDS011;48597;49.030;1.822;2022-11-14T02:52:08;3.85;;;3.53;;
62543;SDS011;48597;49.030;1.822;2022-11-14T02:54:34;4.30;;;3.90;;
62543;SDS011;48597;49.030;1.822;2022-11-14T02:56:59;4.82;;;4.00;;
62543;SDS011;48597;49.030;1.822;2022-11-14T02:59:24;4.28;;;3.88;;
62543;SDS011;48597;49.030;1.822;2022-11-14T03:01:50;4.82;;;4.10;;
62543;SDS011;48597;49.030;1.822;2022-11-14T03:04:15;3.85;;;3.45;;
62543;SDS011;48597;49.030;1.822;2022-11-14T03:06:40;4.28;;;3.88;;
62543;SDS011;48597;49.030;1.822;2022-11-14T03:09:06;3.92;;;3.63;;
62543;SDS011;48597;49.030;1.822;2022-11-14T03:11:31;4.22;;;3.83;;
62543;SDS011;48597;49.030;1.822;2022-11-14T03:13:58;4.13;;;3.72;;
62543;SDS011;48597;49.030;1.822;2022-11-14T03:16:24;3.85;;;3.55;;
62543;SDS011;48597;49.030;1.822;2022-11-14T03:18:49;3.97;;;3.58;;
62543;SDS011;48597;49.030;1.822;2022-11-14T03:21:15;3.47;;;3.17;;
62543;SDS011;48597;49.030;1.822;2022-11-14T03:23:43;4.10;;;3.70;;
62543;SDS011;48597;49.030;1.822;2022-11-14T03:26:08;4.38;;;3.85;;
62543;SDS011;48597;49.030;1.822;2022-11-14T03:28:35;4.07;;;3.67;;
62543;SDS011;48597;49.030;1.822;2022-11-14T03:31:02;3.72;;;3.42;;
62543;SDS011;48597;49.030;1.822;2022-11-14T03:33:28;3.97;;;3.60;;
62543;SDS011;48597;49.030;1.822;2022-11-14T03:35:53;3.72;;;3.42;;
62543;SDS011;48597;49.030;1.822;2022-11-14T03:38:19;4.07;;;3.67;;
62543;SDS011;48597;49.030;1.822;2022-11-14T03:40:49;4.30;;;3.90;;
62543;SDS011;48597;49.030;1.822;2022-11-14T03:43:15;3.95;;;3.58;;
62543;SDS011;48597;49.030;1.822;2022-11-14T03:45:44;3.85;;;3.45;;
62543;SDS011;48597;49.030;1.822;2022-11-14T03:48:10;3.80;;;3.50;;
62543;SDS011;48597;49.030;1.822;2022-11-14T03:50:36;3.75;;;3.45;;
62543;SDS011;48597;49.030;1.822;2022-11-14T03:53:01;3.80;;;3.50;;
62543;SDS011;48597;49.030;1.822;2022-11-14T03:55:27;3.67;;;3.38;;
62543;SDS011;48597;49.030;1.822;2022-11-14T03:57:52;3.80;;;3.47;;
62543;SDS011;48597;49.030;1.822;2022-11-14T04:00:18;3.70;;;3.40;;
62543;SDS011;48597;49.030;1.822;2022-11-14T04:02:43;3.50;;;3.20;;
62543;SDS011;48597;49.030;1.822;2022-11-14T04:05:08;3.50;;;3.20;;
62543;SDS011;48597;49.030;1.822;2022-11-14T04:07:34;4.00;;;3.60;;
62543;SDS011;48597;49.030;1.822;2022-11-14T04:09:59;3.55;;;3.25;;
62543;SDS011;48597;49.030;1.822;2022-11-14T04:12:25;3.80;;;3.40;;
62543;SDS011;48597;49.030;1.822;2022-11-14T04:14:50;3.60;;;3.30;;
62543;SDS011;48597;49.030;1.822;2022-11-14T04:17:15;3.58;;;3.28;;
62543;SDS011;48597;49.030;1.822;2022-11-14T04:19:41;3.65;;;3.35;;
62543;SDS011;48597;49.030;1.822;2022-11-14T04:22:07;3.72;;;3.40;;
62543;SDS011;48597;49.030;1.822;2022-11-14T04:24:32;3.38;;;3.08;;
62543;SDS011;48597;49.030;1.822;2022-11-14T04:26:58;3.33;;;3.05;;
62543;SDS011;48597;49.030;1.822;2022-11-14T04:29:23;7.97;;;3.55;;
62543;SDS011;48597;49.030;1.822;2022-11-14T04:31:48;3.78;;;3.22;;
62543;SDS011;48597;49.030;1.822;2022-11-14T04:34:14;3.40;;;3.10;;
62543;SDS011;48597;49.030;1.822;2022-11-14T04:36:39;3.55;;;3.25;;
62543;SDS011;48597;49.030;1.822;2022-11-14T04:39:05;3.92;;;3.30;;
62543;SDS011;48597;49.030;1.822;2022-11-14T04:41:30;3.28;;;2.97;;
62543;SDS011;48597;49.030;1.822;2022-11-14T04:43:55;3.42;;;3.13;;
62543;SDS011;48597;49.030;1.822;2022-11-14T04:46:21;3.10;;;2.80;;
62543;SDS011;48597;49.030;1.822;2022-11-14T04:48:46;3.22;;;2.92;;
62543;SDS011;48597;49.030;1.822;2022-11-14T04:51:11;3.33;;;3.03;;
62543;SDS011;48597;49.030;1.822;2022-11-14T04:53:37;3.35;;;3.05;;
62543;SDS011;48597;49.030;1.822;2022-11-14T04:56:02;3.30;;;3.00;;
62543;SDS011;48597;49.030;1.822;2022-11-14T04:58:27;3.30;;;3.00;;
62543;SDS011;48597;49.030;1.822;2022-11-14T05:00:53;3.10;;;2.80;;
62543;SDS011;48597;49.030;1.822;2022-11-14T05:03:18;3.90;;;2.97;;
62543;SDS011;48597;49.030;1.822;2022-11-14T05:05:43;3.88;;;3.50;;
62543;SDS011;48597;49.030;1.822;2022-11-14T05:08:09;3.55;;;3.20;;
62543;SDS011;48597;49.030;1.822;2022-11-14T05:10:34;3.00;;;2.70;;
62543;SDS011;48597;49.030;1.822;2022-11-14T05:13:00;3.47;;;3.17;;
62543;SDS011;48597;49.030;1.822;2022-11-14T05:15:25;3.35;;;2.90;;
62543;SDS011;48597;49.030;1.822;2022-11-14T05:17:50;3.15;;;2.95;;
62543;SDS011;48597;49.030;1.822;2022-11-14T05:20:16;3.08;;;2.75;;
62543;SDS011;48597;49.030;1.822;2022-11-14T05:22:41;3.00;;;2.80;;
62543;SDS011;48597;49.030;1.822;2022-11-14T05:25:07;3.00;;;2.80;;
62543;SDS011;48597;49.030;1.822;2022-11-14T05:27:32;3.28;;;2.97;;
62543;SDS011;48597;49.030;1.822;2022-11-14T05:29:58;3.92;;;2.72;;
62543;SDS011;48597;49.030;1.822;2022-11-14T05:32:23;2.88;;;2.67;;
62543;SDS011;48597;49.030;1.822;2022-11-14T05:34:49;3.90;;;3.05;;
62543;SDS011;48597;49.030;1.822;2022-11-14T05:37:14;3.00;;;2.70;;
62543;SDS011;48597;49.030;1.822;2022-11-14T05:39:39;3.10;;;2.80;;
62543;SDS011;48597;49.030;1.822;2022-11-14T05:42:05;3.45;;;2.83;;
62543;SDS011;48597;49.030;1.822;2022-11-14T05:44:30;3.25;;;2.80;;
62543;SDS011;48597;49.030;1.822;2022-11-14T05:46:56;2.70;;;2.50;;
62543;SDS011;48597;49.030;1.822;2022-11-14T05:49:21;2.63;;;2.42;;
62543;SDS011;48597;49.030;1.822;2022-11-14T05:51:47;3.25;;;2.53;;
62543;SDS011;48597;49.030;1.822;2022-11-14T05:54:12;2.78;;;2.58;;
62543;SDS011;48597;49.030;1.822;2022-11-14T05:56:38;2.90;;;2.60;;
62543;SDS011;48597;49.030;1.822;2022-11-14T05:59:03;2.70;;;2.50;;
62543;SDS011;48597;49.030;1.822;2022-11-14T06:01:28;2.85;;;2.58;;
62543;SDS011;48597;49.030;1.822;2022-11-14T06:03:54;2.83;;;2.63;;
62543;SDS011;48597;49.030;1.822;2022-11-14T06:06:20;2.65;;;2.45;;
62543;SDS011;48597;49.030;1.822;2022-11-14T06:08:45;2.72;;;2.53;;
62543;SDS011;48597;49.030;1.822;2022-11-14T06:11:16;2.72;;;2.50;;
62543;SDS011;48597;49.030;1.822;2022-11-14T06:13:42;2.65;;;2.45;;
62543;SDS011;48597;49.030;1.822;2022-11-14T06:16:09;2.55;;;2.20;;
62543;SDS011;48597;49.030;1.822;2022-11-14T06:18:37;2.70;;;2.50;;
62543;SDS011;48597;49.030;1.822;2022-11-14T06:21:05;2.78;;;2.20;;
62543;SDS011;48597;49.030;1.822;2022-11-14T06:23:33;2.85;;;2.25;;
62543;SDS011;48597;49.030;1.822;2022-11-14T06:26:00;2.65;;;2.45;;
62543;SDS011;48597;49.030;1.822;2022-11-14T06:28:30;2.40;;;2.20;;
62543;SDS011;48597;49.030;1.822;2022-11-14T06:31:03;3.28;;;2.60;;
62543;SDS011;48597;49.030;1.822;2022-11-14T06:33:31;2.50;;;2.25;;
62543;SDS011;48597;49.030;1.822;2022-11-14T06:35:59;2.45;;;2.25;;
62543;SDS011;48597;49.030;1.822;2022-11-14T06:38:25;2.40;;;2.20;;
62543;SDS011;48597;49.030;1.822;2022-11-14T06:40:51;2.47;;;2.20;;
62543;SDS011;48597;49.030;1.822;2022-11-14T06:43:16;2.42;;;2.17;;
62543;SDS011;48597;49.030;1.822;2022-11-14T06:45:42;2.90;;;2.28;;
62543;SDS011;48597;49.030;1.822;2022-11-14T06:48:07;3.03;;;2.30;;
62543;SDS011;48597;49.030;1.822;2022-11-14T06:50:33;3.45;;;2.25;;
62543;SDS011;48597;49.030;1.822;2022-11-14T06:52:58;2.92;;;2.20;;
62543;SDS011;48597;49.030;1.822;2022-11-14T06:55:24;2.40;;;2.10;;
62543;SDS011;48597;49.030;1.822;2022-11-14T06:57:53;4.80;;;2.42;;
62543;SDS011;48597;49.030;1.822;2022-11-14T07:00:19;4.13;;;2.20;;
62543;SDS011;48597;49.030;1.822;2022-11-14T07:02:46;2.55;;;1.88;;
62543;SDS011;48597;49.030;1.822;2022-11-14T07:05:12;6.28;;;1.98;;
62543;SDS011;48597;49.030;1.822;2022-11-14T07:07:37;2.60;;;1.90;;
62543;SDS011;48597;49.030;1.822;2022-11-14T07:10:02;2.63;;;1.92;;
62543;SDS011;48597;49.030;1.822;2022-11-14T07:12:28;2.20;;;2.00;;
62543;SDS011;48597;49.030;1.822;2022-11-14T07:14:53;2.42;;;2.00;;
62543;SDS011;48597;49.030;1.822;2022-11-14T07:17:19;2.75;;;1.80;;
62543;SDS011;48597;49.030;1.822;2022-11-14T07:19:44;2.40;;;2.05;;
62543;SDS011;48597;49.030;1.822;2022-11-14T07:22:09;2.47;;;1.90;;
62543;SDS011;48597;49.030;1.822;2022-11-14T07:24:35;2.63;;;2.00;;
62543;SDS011;48597;49.030;1.822;2022-11-14T07:27:00;2.50;;;2.00;;
62543;SDS011;48597;49.030;1.822;2022-11-14T07:29:26;2.08;;;1.70;;
62543;SDS011;48597;49.030;1.822;2022-11-14T07:31:51;2.30;;;1.90;;
62543;SDS011;48597;49.030;1.822;2022-11-14T07:34:16;2.17;;;2.00;;
62543;SDS011;48597;49.030;1.822;2022-11-14T07:36:45;2.35;;;1.63;;
62543;SDS011;48597;49.030;1.822;2022-11-14T07:39:11;1.88;;;1.77;;
62543;SDS011;48597;49.030;1.822;2022-11-14T07:41:36;2.65;;;1.83;;
62543;SDS011;48597;49.030;1.822;2022-11-14T07:44:02;1.80;;;1.70;;
62543;SDS011;48597;49.030;1.822;2022-11-14T07:46:27;2.00;;;1.90;;
62543;SDS011;48597;49.030;1.822;2022-11-14T07:48:52;2.28;;;1.85;;
62543;SDS011;48597;49.030;1.822;2022-11-14T07:51:19;2.28;;;1.70;;
62543;SDS011;48597;49.030;1.822;2022-11-14T07:53:44;2.30;;;1.70;;
62543;SDS011;48597;49.030;1.822;2022-11-14T07:56:10;1.98;;;1.73;;
62543;SDS011;48597;49.030;1.822;2022-11-14T07:58:39;2.00;;;1.80;;
62543;SDS011;48597;49.030;1.822;2022-11-14T08:01:05;1.70;;;1.60;;
62543;SDS011;48597;49.030;1.822;2022-11-14T08:03:32;1.50;;;1.40;;
62543;SDS011;48597;49.030;1.822;2022-11-14T08:06:02;2.33;;;1.90;;
62543;SDS011;48597;49.030;1.822;2022-11-14T08:08:29;2.97;;;1.83;;
62543;SDS011;48597;49.030;1.822;2022-11-14T08:10:55;2.78;;;1.70;;
62543;SDS011;48597;49.030;1.822;2022-11-14T08:13:22;1.67;;;1.58;;
62543;SDS011;48597;49.030;1.822;2022-11-14T08:15:47;1.75;;;1.65;;
62543;SDS011;48597;49.030;1.822;2022-11-14T08:18:12;2.97;;;1.58;;
62543;SDS011;48597;49.030;1.822;2022-11-14T08:20:38;2.45;;;1.60;;
62543;SDS011;48597;49.030;1.822;2022-11-14T08:23:04;1.40;;;1.30;;
62543;SDS011;48597;49.030;1.822;2022-11-14T08:25:31;2.97;;;1.52;;
62543;SDS011;48597;49.030;1.822;2022-11-14T08:27:56;1.60;;;1.50;;
62543;SDS011;48597;49.030;1.822;2022-11-14T08:30:21;1.52;;;1.30;;
62543;SDS011;48597;49.030;1.822;2022-11-14T08:32:47;1.48;;;1.38;;
62543;SDS011;48597;49.030;1.822;2022-11-14T08:35:12;2.15;;;1.30;;
62543;SDS011;48597;49.030;1.822;2022-11-14T08:37:38;1.85;;;1.30;;
62543;SDS011;48597;49.030;1.822;2022-11-14T08:40:03;1.90;;;1.40;;
62543;SDS011;48597;49.030;1.822;2022-11-14T08:42:30;1.50;;;1.40;;
62543;SDS011;48597;49.030;1.822;2022-11-14T08:44:55;1.92;;;1.30;;
62543;SDS011;48597;49.030;1.822;2022-11-14T08:47:20;1.40;;;1.30;;
62543;SDS011;48597;49.030;1.822;2022-11-14T08:49:46;1.17;;;1.10;;
62543;SDS011;48597;49.030;1.822;2022-11-14T08:52:11;1.45;;;1.35;;
62543;SDS011;48597;49.030;1.822;2022-11-14T08:54:36;1.30;;;1.20;;
62543;SDS011;48597;49.030;1.822;2022-11-14T08:57:02;1.45;;;1.35;;
62543;SDS011;48597;49.030;1.822;2022-11-14T08:59:29;1.50;;;1.40;;
62543;SDS011;48597;49.030;1.822;2022-11-14T09:01:54;1.40;;;1.30;;
62543;SDS011;48597;49.030;1.822;2022-11-14T09:04:20;2.40;;;1.33;;
62543;SDS011;48597;49.030;1.822;2022-11-14T09:06:45;1.55;;;1.30;;
62543;SDS011;48597;49.030;1.822;2022-11-14T09:09:11;1.98;;;1.45;;
62543;SDS011;48597;49.030;1.822;2022-11-14T09:11:36;1.75;;;1.30;;
62543;SDS011;48597;49.030;1.822;2022-11-14T09:14:02;1.30;;;1.20;;
62543;SDS011;48597;49.030;1.822;2022-11-14T09:16:28;1.33;;;1.20;;
62543;SDS011;48597;49.030;1.822;2022-11-14T09:18:53;1.60;;;1.38;;
62543;SDS011;48597;49.030;1.822;2022-11-14T09:21:18;1.38;;;1.08;;
62543;SDS011;48597;49.030;1.822;2022-11-14T09:23:45;1.40;;;1.30;;
62543;SDS011;48597;49.030;1.822;2022-11-14T09:26:11;1.40;;;1.30;;
62543;SDS011;48597;49.030;1.822;2022-11-14T09:28:36;1.30;;;1.20;;
62543;SDS011;48597;49.030;1.822;2022-11-14T09:31:02;1.00;;;1.00;;
62543;SDS011;48597;49.030;1.822;2022-11-14T09:33:29;1.33;;;1.20;;
62543;SDS011;48597;49.030;1.822;2022-11-14T09:35:55;1.20;;;1.10;;
62543;SDS011;48597;49.030;1.822;2022-11-14T09:38:21;1.20;;;1.15;;
62543;SDS011;48597;49.030;1.822;2022-11-14T09:40:51;1.08;;;1.05;;
62543;SDS011;48597;49.030;1.822;2022-11-14T09:46:11;1.05;;;1.02;;
62543;SDS011;48597;49.030;1.822;2022-11-14T09:48:42;1.88;;;1.17;;
62543;SDS011;48597;49.030;1.822;2022-11-14T09:51:08;1.00;;;1.00;;
62543;SDS011;48597;49.030;1.822;2022-11-14T09:53:46;1.00;;;1.00;;
62543;SDS011;48597;49.030;1.822;2022-11-14T09:56:21;1.30;;;1.20;;
62543;SDS011;48597;49.030;1.822;2022-11-14T09:58:51;1.08;;;1.02;;
62543;SDS011;48597;49.030;1.822;2022-11-14T10:04:45;1.40;;;1.30;;
62543;SDS011;48597;49.030;1.822;2022-11-14T10:12:55;1.30;;;1.20;;
62543;SDS011;48597;49.030;1.822;2022-11-14T10:18:11;1.27;;;1.17;;
62543;SDS011;48597;49.030;1.822;2022-11-14T10:20:47;1.05;;;0.95;;
62543;SDS011;48597;49.030;1.822;2022-11-14T10:28:33;1.35;;;1.20;;
62543;SDS011;48597;49.030;1.822;2022-11-14T10:34:13;1.20;;;1.10;;
62543;SDS011;48597;49.030;1.822;2022-11-14T10:37:12;1.30;;;1.20;;
62543;SDS011;48597;49.030;1.822;2022-11-14T10:39:43;1.50;;;1.40;;
62543;SDS011;48597;49.030;1.822;2022-11-14T10:42:15;1.20;;;1.10;;
62543;SDS011;48597;49.030;1.822;2022-11-14T10:44:55;1.30;;;1.20;;
62543;SDS011;48597;49.030;1.822;2022-11-14T10:47:26;1.45;;;1.20;;
62543;SDS011;48597;49.030;1.822;2022-11-14T10:50:01;1.52;;;1.30;;
62543;SDS011;48597;49.030;1.822;2022-11-14T10:52:39;1.20;;;1.20;;
62543;SDS011;48597;49.030;1.822;2022-11-14T10:55:14;1.00;;;1.00;;
62543;SDS011;48597;49.030;1.822;2022-11-14T10:57:41;2.05;;;1.15;;
62543;SDS011;48597;49.030;1.822;2022-11-14T11:00:18;1.30;;;1.20;;
62543;SDS011;48597;49.030;1.822;2022-11-14T11:05:17;1.70;;;1.60;;
62543;SDS011;48597;49.030;1.822;2022-11-14T11:07:45;1.60;;;1.50;;
62543;SDS011;48597;49.030;1.822;2022-11-14T11:10:30;1.98;;;1.40;;
62543;SDS011;48597;49.030;1.822;2022-11-14T11:13:27;1.48;;;1.38;;
62543;SDS011;48597;49.030;1.822;2022-11-14T11:16:14;1.40;;;1.30;;
62543;SDS011;48597;49.030;1.822;2022-11-14T11:18:45;1.48;;;1.25;;
62543;SDS011;48597;49.030;1.822;2022-11-14T11:21:11;1.13;;;1.13;;
62543;SDS011;48597;49.030;1.822;2022-11-14T11:23:48;1.52;;;1.42;;
62543;SDS011;48597;49.030;1.822;2022-11-14T11:28:43;1.50;;;1.40;;
62543;SDS011;48597;49.030;1.822;2022-11-14T11:34:20;1.63;;;1.40;;
62543;SDS011;48597;49.030;1.822;2022-11-14T11:36:49;1.52;;;1.42;;
62543;SDS011;48597;49.030;1.822;2022-11-14T11:39:24;1.70;;;1.60;;
62543;SDS011;48597;49.030;1.822;2022-11-14T11:41:53;2.17;;;1.80;;
62543;SDS011;48597;49.030;1.822;2022-11-14T11:44:21;1.88;;;1.45;;
62543;SDS011;48597;49.030;1.822;2022-11-14T11:46:58;1.45;;;1.35;;
62543;SDS011;48597;49.030;1.822;2022-11-14T11:49:31;2.45;;;1.50;;
62543;SDS011;48597;49.030;1.822;2022-11-14T11:52:10;1.58;;;1.48;;
62543;SDS011;48597;49.030;1.822;2022-11-14T11:54:49;1.73;;;1.63;;
62543;SDS011;48597;49.030;1.822;2022-11-14T11:57:30;1.63;;;1.33;;
62543;SDS011;48597;49.030;1.822;2022-11-14T12:00:33;1.70;;;1.60;;
62543;SDS011;48597;49.030;1.822;2022-11-14T12:02:51;1.48;;;1.38;;
62543;SDS011;48597;49.030;1.822;2022-11-14T12:08:05;1.90;;;1.63;;
62543;SDS011;48597;49.030;1.822;2022-11-14T12:10:36;2.10;;;1.90;;
62543;SDS011;48597;49.030;1.822;2022-11-14T12:15:45;2.35;;;2.03;;
62543;SDS011;48597;49.030;1.822;2022-11-14T12:21:04;1.83;;;1.73;;
62543;SDS011;48597;49.030;1.822;2022-11-14T12:23:54;2.33;;;2.13;;
62543;SDS011;48597;49.030;1.822;2022-11-14T12:31:41;2.20;;;2.00;;
62543;SDS011;48597;49.030;1.822;2022-11-14T12:34:19;1.85;;;1.75;;
62543;SDS011;48597;49.030;1.822;2022-11-14T12:36:51;1.75;;;1.65;;
62543;SDS011;48597;49.030;1.822;2022-11-14T12:39:23;2.13;;;1.90;;
62543;SDS011;48597;49.030;1.822;2022-11-14T12:42:01;1.90;;;1.80;;
62543;SDS011;48597;49.030;1.822;2022-11-14T12:52:02;2.33;;;2.10;;
62543;SDS011;48597;49.030;1.822;2022-11-14T12:54:42;2.00;;;1.90;;
62543;SDS011;48597;49.030;1.822;2022-11-14T12:57:14;2.33;;;1.90;;
62543;SDS011;48597;49.030;1.822;2022-11-14T13:00:10;1.98;;;1.88;;
62543;SDS011;48597;49.030;1.822;2022-11-14T13:02:46;1.88;;;1.77;;
62543;SDS011;48597;49.030;1.822;2022-11-14T13:05:35;2.72;;;2.03;;
62543;SDS011;48597;49.030;1.822;2022-11-14T13:10:34;2.30;;;2.10;;
62543;SDS011;48597;49.030;1.822;2022-11-14T13:15:54;2.10;;;1.90;;
62543;SDS011;48597;49.030;1.822;2022-11-14T13:22:32;2.63;;;1.88;;
62543;SDS011;48597;49.030;1.822;2022-11-14T13:27:32;2.10;;;1.90;;
62543;SDS011;48597;49.030;1.822;2022-11-14T13:29:58;2.15;;;2.00;;
62543;SDS011;48597;49.030;1.822;2022-11-14T13:38:05;2.25;;;1.90;;
62543;SDS011;48597;49.030;1.822;2022-11-14T13:41:18;3.10;;;2.10;;
62543;SDS011;48597;49.030;1.822;2022-11-14T13:52:16;2.10;;;1.90;;
62543;SDS011;48597;49.030;1.822;2022-11-14T13:54:46;2.47;;;2.15;;
62543;SDS011;48597;49.030;1.822;2022-11-14T14:02:37;2.05;;;1.90;;
62543;SDS011;48597;49.030;1.822;2022-11-14T14:16:30;2.35;;;1.90;;
62543;SDS011;48597;49.030;1.822;2022-11-14T14:19:11;2.30;;;1.90;;
62543;SDS011;48597;49.030;1.822;2022-11-14T14:24:45;2.80;;;2.00;;
62543;SDS011;48597;49.030;1.822;2022-11-14T14:27:33;3.28;;;1.92;;
62543;SDS011;48597;49.030;1.822;2022-11-14T14:30:03;3.08;;;1.85;;
62543;SDS011;48597;49.030;1.822;2022-11-14T14:32:34;1.98;;;1.77;;
62543;SDS011;48597;49.030;1.822;2022-11-14T14:35:12;3.13;;;1.90;;
62543;SDS011;48597;49.030;1.822;2022-11-14T14:40:27;3.60;;;1.95;;
62543;SDS011;48597;49.030;1.822;2022-11-14T14:42:58;3.10;;;2.03;;
62543;SDS011;48597;49.030;1.822;2022-11-14T14:45:25;3.05;;;1.95;;
62543;SDS011;48597;49.030;1.822;2022-11-14T14:47:59;2.97;;;2.00;;
62543;SDS011;48597;49.030;1.822;2022-11-14T14:50:36;2.90;;;1.80;;
62543;SDS011;48597;49.030;1.822;2022-11-14T14:53:04;5.18;;;1.90;;
62543;SDS011;48597;49.030;1.822;2022-11-14T14:55:31;2.03;;;1.83;;
62543;SDS011;48597;49.030;1.822;2022-11-14T15:01:05;2.75;;;2.20;;
62543;SDS011;48597;49.030;1.822;2022-11-14T15:03:37;2.47;;;1.83;;
62543;SDS011;48597;49.030;1.822;2022-11-14T15:06:05;2.15;;;1.80;;
62543;SDS011;48597;49.030;1.822;2022-11-14T15:11:12;2.45;;;1.73;;
62543;SDS011;48597;49.030;1.822;2022-11-14T15:13:38;2.30;;;2.10;;
62543;SDS011;48597;49.030;1.822;2022-11-14T15:16:06;3.40;;;1.90;;
62543;SDS011;48597;49.030;1.822;2022-11-14T15:18:33;2.47;;;1.95;;
62543;SDS011;48597;49.030;1.822;2022-11-14T15:21:15;2.83;;;2.00;;
62543;SDS011;48597;49.030;1.822;2022-11-14T15:24:01;2.95;;;1.77;;
62543;SDS011;48597;49.030;1.822;2022-11-14T15:26:39;2.83;;;1.92;;
62543;SDS011;48597;49.030;1.822;2022-11-14T15:29:21;2.13;;;1.85;;
62543;SDS011;48597;49.030;1.822;2022-11-14T15:31:51;1.80;;;1.70;;
62543;SDS011;48597;49.030;1.822;2022-11-14T15:39:43;2.10;;;1.90;;
62543;SDS011;48597;49.030;1.822;2022-11-14T15:42:13;3.03;;;1.80;;
62543;SDS011;48597;49.030;1.822;2022-11-14T15:44:43;2.50;;;1.75;;
62543;SDS011;48597;49.030;1.822;2022-11-14T15:47:11;2.03;;;1.83;;
62543;SDS011;48597;49.030;1.822;2022-11-14T15:52:25;2.42;;;2.05;;
62543;SDS011;48597;49.030;1.822;2022-11-14T15:55:23;2.90;;;1.80;;
62543;SDS011;48597;49.030;1.822;2022-11-14T15:57:49;2.63;;;2.00;;
62543;SDS011;48597;49.030;1.822;2022-11-14T16:00:15;2.20;;;2.00;;
62543;SDS011;48597;49.030;1.822;2022-11-14T16:02:51;2.20;;;1.80;;
62543;SDS011;48597;49.030;1.822;2022-11-14T16:05:27;2.30;;;1.80;;
62543;SDS011;48597;49.030;1.822;2022-11-14T16:07:53;4.18;;;2.08;;
62543;SDS011;48597;49.030;1.822;2022-11-14T16:10:20;2.80;;;2.20;;
62543;SDS011;48597;49.030;1.822;2022-11-14T16:12:47;2.70;;;2.10;;
62543;SDS011;48597;49.030;1.822;2022-11-14T16:15:12;2.10;;;1.88;;
62543;SDS011;48597;49.030;1.822;2022-11-14T16:17:42;2.40;;;2.20;;
62543;SDS011;48597;49.030;1.822;2022-11-14T16:20:12;2.25;;;2.05;;
62543;SDS011;48597;49.030;1.822;2022-11-14T16:22:48;2.13;;;1.92;;
62543;SDS011;48597;49.030;1.822;2022-11-14T16:25:19;3.25;;;2.17;;
62543;SDS011;48597;49.030;1.822;2022-11-14T16:27:47;2.78;;;2.10;;
62543;SDS011;48597;49.030;1.822;2022-11-14T16:30:13;2.30;;;1.90;;
62543;SDS011;48597;49.030;1.822;2022-11-14T16:32:40;2.08;;;1.80;;
62543;SDS011;48597;49.030;1.822;2022-11-14T16:35:17;2.30;;;2.03;;
62543;SDS011;48597;49.030;1.822;2022-11-14T16:37:44;2.55;;;2.00;;
62543;SDS011;48597;49.030;1.822;2022-11-14T16:42:47;2.95;;;2.13;;
62543;SDS011;48597;49.030;1.822;2022-11-14T16:45:13;3.10;;;2.03;;
62543;SDS011;48597;49.030;1.822;2022-11-14T16:47:40;2.95;;;2.20;;
62543;SDS011;48597;49.030;1.822;2022-11-14T16:50:05;2.60;;;2.10;;
62543;SDS011;48597;49.030;1.822;2022-11-14T16:52:31;3.08;;;2.25;;
62543;SDS011;48597;49.030;1.822;2022-11-14T16:54:56;2.65;;;2.10;;
62543;SDS011;48597;49.030;1.822;2022-11-14T16:57:22;2.67;;;2.17;;
62543;SDS011;48597;49.030;1.822;2022-11-14T16:59:48;2.30;;;2.10;;
62543;SDS011;48597;49.030;1.822;2022-11-14T17:02:15;2.20;;;2.00;;
62543;SDS011;48597;49.030;1.822;2022-11-14T17:04:42;2.72;;;2.22;;